Time;durP1;ratioP1;P1;durP2;ratioP2;P2;SDS_P1;SDS_P2;PMS_P1;PMS_P2;Temp;Humidity;BMP_temperature;BMP_pressure;BME280_temperature;BME280_humidity;BME280_pressure;Samples;Min_cycle;Max_cycle;Signal;HPM_P1;HPM_P2
2022/05/04 00:00:51;;;;;;;0.40;0.30;;;;;;;13.77;51.49;100536.63;104135;1279;109355;-78
2022/05/04 00:03:19;;;;;;;0.40;0.30;;;;;;;13.81;51.29;100535.79;104041;1279;139998;-76
2022/05/04 00:05:48;;;;;;;0.40;0.20;;;;;;;13.82;51.29;100542.86;104097;1279;109909;-78
2022/05/04 00:08:16;;;;;;;0.40;0.20;;;;;;;13.81;51.36;100540.41;103972;1279;140218;-78
2022/05/04 00:10:44;;;;;;;0.40;0.30;;;;;;;13.82;51.38;100543.23;104124;1279;95891;-78
2022/05/04 00:13:12;;;;;;;0.40;0.30;;;;;;;13.74;51.65;100546.36;104111;1279;109676;-75
2022/05/04 00:15:40;;;;;;;0.40;0.30;;;;;;;13.70;51.95;100550.27;104048;1279;137277;-77
2022/05/04 00:18:08;;;;;;;0.40;0.30;;;;;;;13.71;51.87;100552.55;104108;1279;109720;-75
2022/05/04 00:20:37;;;;;;;0.40;0.30;;;;;;;13.76;51.73;100554.69;104023;1279;140341;-80
2022/05/04 00:23:05;;;;;;;0.40;0.30;;;;;;;13.82;51.93;100555.71;104173;1279;95727;-77
2022/05/04 00:25:32;;;;;;;0.40;0.30;;;;;;;13.89;51.72;100557.27;104120;1279;110297;-75
2022/05/04 00:28:02;;;;;;;0.40;0.30;;;;;;;13.86;51.62;100560.03;103998;1279;139993;-75
2022/05/04 00:30:30;;;;;;;0.40;0.20;;;;;;;13.79;51.81;100559.91;104110;1279;109611;-75
2022/05/04 00:32:59;;;;;;;0.40;0.20;;;;;;;13.75;52.07;100560.60;103976;1279;139895;-76
2022/05/04 00:35:27;;;;;;;0.40;0.30;;;;;;;13.75;52.06;100562.04;104116;1280;95216;-77
2022/05/04 00:37:55;;;;;;;0.40;0.30;;;;;;;13.77;52.08;100565.00;104093;1279;110195;-79
2022/05/04 00:40:23;;;;;;;0.40;0.20;;;;;;;13.76;52.10;100561.48;103972;1279;140070;-82
2022/05/04 00:42:51;;;;;;;0.40;0.20;;;;;;;13.76;52.21;100566.30;104083;1279;107746;-78
2022/05/04 00:45:19;;;;;;;0.40;0.30;;;;;;;13.70;52.50;100568.29;103977;1279;140607;-75
2022/05/04 00:47:47;;;;;;;0.40;0.20;;;;;;;13.69;52.44;100570.48;104083;1279;95736;-80
2022/05/04 00:50:14;;;;;;;0.40;0.20;;;;;;;13.69;52.70;100574.01;103977;1279;138816;-78
2022/05/04 00:52:44;;;;;;;0.40;0.30;;;;;;;13.71;52.51;100576.46;104065;1279;98946;-75
2022/05/04 00:55:13;;;;;;;0.40;0.30;;;;;;;13.68;52.78;100581.59;104102;1280;110722;-80
2022/05/04 01:00:28;;;;;;;0.40;0.30;;;;;;;13.71;52.66;100583.23;104114;1279;95314;-75
2022/05/04 01:02:56;;;;;;;0.40;0.20;;;;;;;13.67;53.01;100584.45;104010;1281;139783;-75
2022/05/04 01:05:24;;;;;;;0.40;0.30;;;;;;;13.67;53.00;100583.73;103785;1281;99957;-75
2022/05/04 01:07:51;;;;;;;0.40;0.30;;;;;;;13.71;52.73;100582.70;104093;1280;106197;-78
2022/05/04 01:10:19;;;;;;;0.40;0.20;;;;;;;13.75;52.63;100580.77;103972;1279;140997;-79
2022/05/04 01:12:48;;;;;;;0.40;0.30;;;;;;;13.79;52.83;100581.18;104112;1279;95244;-77
2022/05/04 01:15:17;;;;;;;0.40;0.30;;;;;;;13.74;52.67;100585.44;104395;1279;139880;-76
2022/05/04 01:17:45;;;;;;;0.40;0.20;;;;;;;13.67;52.94;100588.02;104078;1280;99824;-79
2022/05/04 01:20:14;;;;;;;0.40;0.20;;;;;;;13.67;53.25;100587.51;104001;1280;139083;-75
2022/05/04 01:22:42;;;;;;;0.40;0.20;;;;;;;13.58;53.62;100583.02;104101;1281;95294;-75
2022/05/04 01:25:11;;;;;;;0.40;0.20;;;;;;;13.57;53.50;100585.37;104056;1279;95156;-75
2022/05/04 01:27:39;;;;;;;0.40;0.30;;;;;;;13.60;53.50;100583.12;104004;1279;139979;-74
2022/05/04 01:30:07;;;;;;;0.40;0.20;;;;;;;13.66;53.30;100586.11;104077;1280;99816;-78
2022/05/04 01:32:35;;;;;;;0.40;0.30;;;;;;;13.62;53.52;100583.59;103964;1281;140572;-76
2022/05/04 01:35:03;;;;;;;0.40;0.30;;;;;;;13.57;53.71;100583.56;104072;1280;95246;-77
2022/05/04 01:37:31;;;;;;;0.40;0.30;;;;;;;13.56;53.66;100580.93;104120;1280;95236;-76
2022/05/04 01:39:59;;;;;;;0.40;0.30;;;;;;;13.59;53.67;100580.50;103961;1280;140072;-77
2022/05/04 01:42:27;;;;;;;0.40;0.30;;;;;;;13.65;53.49;100577.57;104124;1279;97169;-78
2022/05/04 01:44:54;;;;;;;0.40;0.20;;;;;;;13.53;53.69;100578.73;103959;1280;139760;-77
2022/05/04 01:47:22;;;;;;;0.40;0.20;;;;;;;13.54;53.57;100577.97;104068;1281;95248;-75
2022/05/04 01:49:50;;;;;;;0.40;0.20;;;;;;;13.58;53.50;100582.83;104063;1281;95838;-77
2022/05/04 01:52:18;;;;;;;0.40;0.20;;;;;;;13.66;53.13;100592.88;103941;1281;139547;-78
2022/05/04 01:54:46;;;;;;;0.40;0.20;;;;;;;13.72;52.98;100599.62;104062;1281;99757;-79
2022/05/04 01:57:14;;;;;;;0.40;0.20;;;;;;;13.69;53.03;100603.29;103989;1278;139977;-74
2022/05/04 01:59:42;;;;;;;0.40;0.20;;;;;;;13.60;53.02;100604.69;104021;1280;95221;-75
2022/05/04 02:02:10;;;;;;;0.40;0.20;;;;;;;13.53;53.07;100602.41;104012;1281;140205;-75
2022/05/04 02:04:38;;;;;;;0.40;0.20;;;;;;;13.50;53.09;100602.91;104253;1280;110873;-75
2022/05/04 02:07:10;;;;;;;0.40;0.30;;;;;;;13.44;53.23;100604.20;103887;1281;100067;-77
2022/05/04 02:09:39;;;;;;;0.40;0.30;;;;;;;13.40;53.29;100607.73;104069;1281;140717;-76
2022/05/04 02:12:07;;;;;;;0.40;0.20;;;;;;;13.43;53.26;100606.71;104384;1280;95215;-76
2022/05/04 02:14:35;;;;;;;0.40;0.20;;;;;;;13.45;53.12;100604.32;104008;1281;143051;-75
2022/05/04 02:17:03;;;;;;;0.40;0.20;;;;;;;13.44;52.99;100604.52;104080;1279;108681;-75
2022/05/04 02:19:31;;;;;;;0.40;0.20;;;;;;;13.45;52.94;100610.39;104046;1281;100000;-82
2022/05/04 02:21:59;;;;;;;0.40;0.30;;;;;;;13.47;52.70;100613.72;103943;1279;139755;-75
2022/05/04 02:24:27;;;;;;;0.40;0.20;;;;;;;13.52;52.71;100618.71;104061;1281;97912;-81
2022/05/04 02:26:54;;;;;;;0.40;0.30;;;;;;;13.54;52.48;100620.60;103991;1280;140162;-77
2022/05/04 02:29:22;;;;;;;0.40;0.30;;;;;;;13.51;52.68;100616.58;104083;1281;109905;-77
2022/05/04 02:31:50;;;;;;;0.40;0.30;;;;;;;13.44;52.75;100617.20;104144;1281;99879;-77
2022/05/04 02:34:18;;;;;;;0.40;0.30;;;;;;;13.33;52.68;100621.45;103984;1280;139801;-75
2022/05/04 02:39:32;;;;;;;0.40;0.30;;;;;;;13.33;53.09;100624.88;103958;1279;139524;-76
2022/05/04 02:42:00;;;;;;;0.40;0.20;;;;;;;13.33;53.22;100627.16;104032;1281;110389;-76
2022/05/04 02:44:28;;;;;;;0.40;0.20;;;;;;;13.23;53.31;100627.16;103975;1281;141498;-83
2022/05/04 02:46:55;;;;;;;0.40;0.30;;;;;;;13.21;53.36;100625.07;104062;1281;109266;-76
2022/05/04 02:49:23;;;;;;;0.40;0.20;;;;;;;13.23;53.36;100627.17;104120;1281;95634;-74
2022/05/04 02:51:51;;;;;;;0.40;0.20;;;;;;;13.20;53.48;100626.71;103973;1281;140891;-84
2022/05/04 02:54:19;;;;;;;0.40;0.30;;;;;;;13.09;53.67;100623.34;104145;1281;110322;-75
2022/05/04 02:56:52;;;;;;;0.40;0.30;;;;;;;13.03;53.89;100623.91;104018;1281;140292;-77
2022/05/04 02:59:19;;;;;;;0.40;0.30;;;;;;;12.88;53.78;100628.64;104162;1281;110678;-75
2022/05/04 03:04:34;;;;;;;0.40;0.30;;;;;;;12.86;53.79;100644.58;104052;1281;140374;-76
2022/05/04 03:07:02;;;;;;;0.40;0.30;;;;;;;12.94;53.71;100650.58;104075;1281;108836;-77
2022/05/04 03:09:29;;;;;;;0.40;0.30;;;;;;;13.04;53.49;100653.83;103981;1281;140443;-80
2022/05/04 03:11:57;;;;;;;0.40;0.30;;;;;;;13.06;53.14;100650.34;104127;1281;109309;-78
2022/05/04 03:14:27;;;;;;;0.40;0.30;;;;;;;13.01;52.82;100654.23;103935;1279;139967;-77
2022/05/04 03:16:56;;;;;;;0.40;0.30;;;;;;;13.05;52.84;100650.92;104209;1281;95615;-80
2022/05/04 03:19:25;;;;;;;0.40;0.30;;;;;;;13.12;52.62;100648.20;104148;1279;111274;-75
2022/05/04 03:21:53;;;;;;;0.40;0.40;;;;;;;13.15;52.56;100652.91;104031;1279;139990;-78
2022/05/04 03:24:21;;;;;;;0.40;0.30;;;;;;;13.14;52.88;100653.66;104055;1281;108294;-76
2022/05/04 03:26:49;;;;;;;0.40;0.30;;;;;;;13.11;52.80;100656.98;103981;1279;139027;-84
2022/05/04 03:29:17;;;;;;;0.40;0.30;;;;;;;13.10;52.58;100657.70;104104;1281;95279;-78
2022/05/04 03:31:45;;;;;;;0.40;0.30;;;;;;;13.00;52.62;100656.45;104166;1279;110260;-78
2022/05/04 03:34:12;;;;;;;0.40;0.30;;;;;;;13.00;52.51;100658.73;104003;1279;139975;-76
2022/05/04 03:36:40;;;;;;;0.40;0.30;;;;;;;12.98;52.31;100658.64;104096;1280;109352;-76
2022/05/04 03:39:08;;;;;;;0.40;0.30;;;;;;;13.00;52.38;100658.39;103956;1279;139815;-80
2022/05/04 03:41:36;;;;;;;0.40;0.30;;;;;;;13.00;52.23;100663.91;104124;1279;98052;-76
2022/05/04 03:44:05;;;;;;;0.40;0.30;;;;;;;12.95;52.32;100669.23;104110;1280;110164;-76
2022/05/04 03:46:46;;;;;;;0.40;0.30;;;;;;;12.93;52.26;100674.11;104025;1279;140245;-78
2022/05/04 03:49:16;;;;;;;0.40;0.30;;;;;;;12.90;52.25;100679.91;104049;1279;109728;-76
2022/05/04 03:51:44;;;;;;;0.40;0.30;;;;;;;12.84;52.17;100682.58;104048;1277;140416;-79
2022/05/04 03:54:12;;;;;;;0.40;0.30;;;;;;;12.87;52.43;100687.86;104146;1281;95554;-78
2022/05/04 03:56:40;;;;;;;0.40;0.30;;;;;;;12.87;52.59;100693.89;104148;1279;140769;-76
2022/05/04 03:59:08;;;;;;;0.40;0.30;;;;;;;12.92;52.83;100696.45;104061;1280;99918;-84
2022/05/04 04:01:36;;;;;;;0.40;0.30;;;;;;;12.82;52.79;100694.61;104138;1279;108865;-78
2022/05/04 04:04:04;;;;;;;0.40;0.30;;;;;;;12.86;52.82;100698.40;103982;1279;140337;-76
2022/05/04 04:06:32;;;;;;;0.40;0.30;;;;;;;12.90;52.82;100698.98;104169;1279;95657;-78
2022/05/04 04:09:03;;;;;;;0.40;0.30;;;;;;;12.84;52.62;100699.18;104028;1279;140369;-75
2022/05/04 04:11:32;;;;;;;0.40;0.30;;;;;;;12.69;52.75;100698.57;104134;1280;100137;-76
2022/05/04 04:14:00;;;;;;;0.40;0.30;;;;;;;12.64;53.00;100707.28;103966;1281;156464;-75
2022/05/04 04:16:29;;;;;;;0.40;0.30;;;;;;;12.69;53.10;100706.76;103937;1279;140107;-76
2022/05/04 04:18:57;;;;;;;0.40;0.30;;;;;;;12.63;53.31;100708.72;104145;1279;95610;-80
2022/05/04 04:24:12;;;;;;;0.40;0.30;;;;;;;12.55;53.48;100713.95;104171;1279;99840;-78
2022/05/04 04:26:39;;;;;;;0.40;0.40;;;;;;;12.56;53.50;100720.34;103962;1279;140376;-76
2022/05/04 04:29:07;;;;;;;0.40;0.40;;;;;;;12.50;53.82;100719.59;104138;1279;95745;-84
2022/05/04 04:31:35;;;;;;;0.40;0.30;;;;;;;12.56;53.70;100722.44;104318;1279;95855;-79
2022/05/04 04:34:03;;;;;;;0.40;0.30;;;;;;;12.66;53.43;100725.55;104042;1279;140359;-78
2022/05/04 04:36:38;;;;;;;0.40;0.30;;;;;;;12.74;53.35;100719.79;104126;1280;99944;-86
2022/05/04 04:39:05;;;;;;;0.40;0.30;;;;;;;12.85;53.02;100720.69;103983;1279;141898;-81
2022/05/04 04:41:33;;;;;;;0.40;0.30;;;;;;;12.89;52.76;100720.92;104070;1279;95679;-76
2022/05/04 04:44:02;;;;;;;0.40;0.30;;;;;;;12.86;52.63;100726.91;104689;1279;95158;-77
2022/05/04 04:46:29;;;;;;;0.40;0.30;;;;;;;12.82;52.81;100729.52;103953;1279;139951;-76
2022/05/04 04:48:58;;;;;;;0.40;0.30;;;;;;;12.84;52.59;100730.52;104160;1279;100088;-75
2022/05/04 04:51:26;;;;;;;0.40;0.30;;;;;;;12.82;52.81;100733.43;104016;1279;139735;-78
2022/05/04 04:53:54;;;;;;;0.40;0.30;;;;;;;12.76;52.55;100729.52;104332;1279;95744;-77
2022/05/04 04:56:21;;;;;;;0.40;0.30;;;;;;;12.72;52.75;100732.86;104141;1279;139920;-77
2022/05/04 04:58:49;;;;;;;0.40;0.30;;;;;;;12.77;52.80;100738.21;104061;1279;110106;-77
2022/05/04 05:01:17;;;;;;;0.40;0.30;;;;;;;12.79;52.50;100740.29;104429;1279;97970;-78
2022/05/04 05:03:45;;;;;;;0.40;0.30;;;;;;;12.73;52.34;100741.92;104130;1279;140403;-77
2022/05/04 05:06:13;;;;;;;0.40;0.30;;;;;;;12.78;52.41;100742.30;104214;1279;95882;-77
2022/05/04 05:08:41;;;;;;;0.40;0.30;;;;;;;12.88;52.10;100744.85;104113;1279;138717;-83
2022/05/04 05:11:09;;;;;;;0.40;0.30;;;;;;;12.97;51.31;100746.33;104250;1281;109889;-77
2022/05/04 05:16:06;;;;;;;0.40;0.30;;;;;;;12.95;51.27;100745.35;104201;1280;98421;-79
2022/05/04 05:16:25;;;;;;;0.40;0.30;;;;;;;13.06;50.63;100753.55;104074;1279;136816;-78
2022/05/04 05:18:55;;;;;;;0.40;0.30;;;;;;;13.24;49.90;100748.20;104450;1278;95855;-78
2022/05/04 05:21:23;;;;;;;0.40;0.30;;;;;;;13.42;49.88;100748.70;104260;1279;140786;-80
2022/05/04 05:23:51;;;;;;;0.40;0.30;;;;;;;13.53;48.69;100748.71;104177;1280;111121;-77
2022/05/04 05:26:19;;;;;;;0.40;0.30;;;;;;;13.52;48.09;100751.79;104919;1279;138896;-78
2022/05/04 05:28:47;;;;;;;0.40;0.30;;;;;;;13.52;48.56;100754.98;104254;1279;107730;-80
2022/05/04 05:31:15;;;;;;;0.40;0.30;;;;;;;13.56;47.66;100753.45;104263;1279;95646;-76
2022/05/04 05:33:45;;;;;;;0.40;0.30;;;;;;;13.57;47.69;100756.83;104117;1279;138692;-83
2022/05/04 05:36:13;;;;;;;0.40;0.20;;;;;;;13.52;47.11;100763.02;104248;1279;110968;-77
2022/05/04 05:38:41;;;;;;;0.40;0.20;;;;;;;13.53;46.96;100761.92;103789;1278;142799;-75
2022/05/04 05:41:09;;;;;;;0.40;0.30;;;;;;;13.58;46.37;100764.61;104268;1279;107758;-76
2022/05/04 05:43:36;;;;;;;0.40;0.30;;;;;;;13.57;46.48;100766.98;104440;1279;95140;-77
2022/05/04 05:46:04;;;;;;;0.40;0.20;;;;;;;13.56;46.72;100766.30;104044;1279;140366;-74
2022/05/04 05:48:32;;;;;;;0.40;0.30;;;;;;;13.59;46.40;100766.02;104100;1279;110775;-74
2022/05/04 05:51:05;;;;;;;0.40;0.20;;;;;;;13.63;46.90;100760.70;104020;1279;140160;-75
2022/05/04 05:53:33;;;;;;;0.40;0.30;;;;;;;13.63;46.12;100764.61;104342;1278;108345;-76
2022/05/04 05:56:01;;;;;;;0.40;0.30;;;;;;;13.53;46.46;100759.60;104098;1279;95320;-75
2022/05/04 05:58:28;;;;;;;0.40;0.30;;;;;;;13.56;46.38;100762.36;103991;1279;139767;-77
2022/05/04 06:00:56;;;;;;;0.40;0.20;;;;;;;13.53;46.18;100761.20;104187;1279;110339;-74
2022/05/04 06:03:24;;;;;;;0.40;0.30;;;;;;;13.54;45.96;100765.62;104009;1279;138548;-74
2022/05/04 06:05:52;;;;;;;0.40;0.20;;;;;;;13.74;46.06;100766.77;104108;1279;110410;-74
2022/05/04 06:08:20;;;;;;;0.40;0.20;;;;;;;13.90;45.60;100766.95;104026;1281;138733;-75
2022/05/04 06:10:47;;;;;;;0.40;0.20;;;;;;;14.08;45.12;100764.52;104191;1279;95861;-80
2022/05/04 06:13:15;;;;;;;0.40;0.30;;;;;;;14.27;44.94;100764.41;104207;1279;110473;-76
2022/05/04 06:15:43;;;;;;;0.40;0.20;;;;;;;14.54;44.63;100765.77;103985;1280;140660;-79
2022/05/04 06:18:12;;;;;;;0.40;0.30;;;;;;;14.60;43.50;100764.84;104104;1281;110271;-77
2022/05/04 06:20:40;;;;;;;0.40;0.20;;;;;;;14.55;44.13;100768.38;104076;1279;140116;-80
2022/05/04 06:23:08;;;;;;;0.40;0.20;;;;;;;14.60;44.34;100764.81;104048;1279;95625;-80
2022/05/04 06:25:36;;;;;;;0.40;0.20;;;;;;;14.60;43.93;100765.70;104132;1279;110583;-77
2022/05/04 06:28:04;;;;;;;0.40;0.20;;;;;;;14.75;44.08;100772.15;104040;1279;140160;-75
2022/05/04 06:36:06;;;;;;;0.40;0.10;;;;;;;16.13;40.86;100772.17;104084;1279;95687;-75
2022/05/04 06:38:33;;;;;;;0.40;0.20;;;;;;;16.55;38.58;100768.34;104067;1279;140073;-76
2022/05/04 06:41:03;;;;;;;0.40;0.10;;;;;;;17.04;37.57;100764.84;104087;1279;100014;-77
2022/05/04 06:43:32;;;;;;;0.40;0.10;;;;;;;17.41;35.42;100768.30;104179;1279;109288;-76
2022/05/04 06:46:01;;;;;;;0.40;0.10;;;;;;;17.09;35.48;100767.52;104070;1279;139056;-87
2022/05/04 06:48:29;;;;;;;0.40;0.10;;;;;;;16.80;36.32;100769.33;104181;1279;95772;-76
2022/05/04 06:50:57;;;;;;;0.40;0.10;;;;;;;16.58;37.17;100766.79;103943;1279;139698;-78
2022/05/04 06:53:24;;;;;;;0.40;0.10;;;;;;;16.62;37.79;100766.05;104115;1279;100698;-75
2022/05/04 06:55:52;;;;;;;0.40;0.10;;;;;;;16.55;37.46;100771.23;104116;1279;109689;-77
2022/05/04 06:58:20;;;;;;;0.40;0.10;;;;;;;16.32;37.05;100777.24;104045;1279;138789;-75
2022/05/04 07:00:48;;;;;;;0.40;0.10;;;;;;;16.05;37.80;100777.90;104179;1279;95153;-76
2022/05/04 07:03:16;;;;;;;0.40;0.10;;;;;;;15.89;38.04;100777.13;104000;1279;138673;-74
2022/05/04 07:05:44;;;;;;;0.40;0.20;;;;;;;15.72;38.56;100778.73;104102;1279;99810;-76
2022/05/04 07:08:12;;;;;;;0.40;0.10;;;;;;;15.63;38.95;100782.47;104183;1279;109261;-77
2022/05/04 07:10:39;;;;;;;0.40;0.20;;;;;;;15.72;38.91;100785.85;104411;1279;139772;-75
2022/05/04 07:13:07;;;;;;;0.40;0.20;;;;;;;15.79;39.21;100788.61;104411;1279;95535;-82
2022/05/04 07:15:36;;;;;;;0.40;0.20;;;;;;;15.85;38.71;100787.68;103966;1281;138342;-77
2022/05/04 07:18:04;;;;;;;0.40;0.20;;;;;;;15.73;38.29;100788.70;104086;1279;100281;-76
2022/05/04 07:20:32;;;;;;;0.40;0.20;;;;;;;15.77;38.80;100793.34;104001;1279;138434;-75
2022/05/04 07:23:00;;;;;;;0.40;0.20;;;;;;;15.94;39.02;100794.30;104147;1279;95236;-77
2022/05/04 07:25:28;;;;;;;0.40;0.20;;;;;;;16.13;38.50;100798.52;104361;1278;95213;-73
2022/05/04 07:27:56;;;;;;;0.40;0.20;;;;;;;16.23;37.95;100794.66;104014;1279;139861;-75
2022/05/04 07:30:23;;;;;;;0.40;0.20;;;;;;;16.36;37.95;100795.69;104157;1279;99169;-77
2022/05/04 07:32:51;;;;;;;0.40;0.20;;;;;;;16.47;37.87;100797.55;103963;1279;139112;-77
2022/05/04 07:35:19;;;;;;;0.40;0.20;;;;;;;16.55;38.05;100801.13;104117;1279;95411;-74
2022/05/04 07:37:48;;;;;;;0.40;0.20;;;;;;;16.60;37.36;100801.66;104064;1279;95147;-78
2022/05/04 07:43:03;;;;;;;0.40;0.20;;;;;;;16.77;37.36;100797.48;104212;1279;100061;-84
2022/05/04 07:45:32;;;;;;;0.40;0.20;;;;;;;16.81;37.55;100795.86;103937;1279;140040;-77
2022/05/04 07:47:59;;;;;;;0.40;0.20;;;;;;;16.91;37.19;100799.02;104091;1279;95652;-76
2022/05/04 07:50:28;;;;;;;0.40;0.20;;;;;;;17.02;37.01;100800.48;104079;1279;138377;-79
2022/05/04 07:52:56;;;;;;;0.40;0.20;;;;;;;17.11;36.63;100805.23;104255;1278;110418;-75
2022/05/04 07:55:24;;;;;;;0.40;0.10;;;;;;;17.45;36.70;100805.98;104174;1278;98435;-79
2022/05/04 07:57:52;;;;;;;0.40;0.10;;;;;;;18.13;35.49;100810.69;104057;1279;139780;-77
2022/05/04 08:05:58;;;;;;;0.40;0.10;;;;;;;18.78;34.45;100813.98;104093;1279;110375;-76
2022/05/04 08:08:28;;;;;;;0.40;0.10;;;;;;;18.64;34.32;100820.27;104016;1279;140726;-82
2022/05/04 08:11:03;;;;;;;0.40;0.10;;;;;;;18.54;35.49;100823.71;104072;1279;109176;-77
2022/05/04 08:13:32;;;;;;;0.40;0.10;;;;;;;18.45;34.83;100820.55;104083;1279;95257;-75
2022/05/04 08:16:00;;;;;;;0.40;0.10;;;;;;;18.28;35.44;100826.51;104008;1279;139860;-77
2022/05/04 08:18:29;;;;;;;0.40;0.10;;;;;;;18.27;35.54;100824.56;104067;1279;111093;-74
2022/05/04 08:20:56;;;;;;;0.40;0.10;;;;;;;18.27;35.81;100826.73;103941;1280;138875;-75
2022/05/04 08:23:24;;;;;;;0.40;0.10;;;;;;;18.25;35.91;100820.52;104010;1281;109258;-75
2022/05/04 08:25:52;;;;;;;0.40;0.10;;;;;;;18.26;36.74;100822.28;104068;1281;95998;-77
2022/05/04 08:28:21;;;;;;;0.40;0.10;;;;;;;18.47;35.62;100821.52;103992;1281;139773;-74
2022/05/04 08:30:49;;;;;;;0.40;0.10;;;;;;;18.66;35.78;100820.21;104097;1281;110085;-75
2022/05/04 08:33:18;;;;;;;0.40;0.10;;;;;;;18.84;35.09;100824.27;103927;1281;139406;-77
2022/05/04 08:35:46;;;;;;;0.40;0.10;;;;;;;18.91;34.34;100817.64;104174;1281;109340;-75
2022/05/04 08:38:14;;;;;;;0.40;0.10;;;;;;;18.93;34.78;100818.08;104058;1280;95657;-75
2022/05/04 08:40:42;;;;;;;0.40;0.10;;;;;;;19.01;34.54;100815.10;104005;1281;139654;-74
2022/05/04 08:43:13;;;;;;;0.40;0.10;;;;;;;19.03;34.94;100821.30;104135;1281;110100;-78
2022/05/04 08:45:42;;;;;;;0.40;0.10;;;;;;;19.13;35.67;100825.98;104092;1281;138844;-73
2022/05/04 08:48:10;;;;;;;0.40;0.10;;;;;;;19.33;35.67;100826.48;104018;1281;107031;-73
2022/05/04 08:50:41;;;;;;;0.40;0.10;;;;;;;19.42;33.95;100821.68;103927;1281;140343;-74
2022/05/04 08:53:08;;;;;;;0.40;0.10;;;;;;;19.45;34.12;100830.84;104028;1281;95180;-74
2022/05/04 08:55:38;;;;;;;0.40;0.10;;;;;;;19.49;34.05;100828.10;103767;1282;110363;-79
2022/05/04 08:58:07;;;;;;;0.40;0.10;;;;;;;19.59;33.37;100825.36;103992;1280;140842;-76
2022/05/04 09:00:35;;;;;;;0.40;0.10;;;;;;;19.71;33.53;100823.07;104023;1281;109371;-79
2022/05/04 09:03:03;;;;;;;0.40;0.10;;;;;;;19.76;33.17;100824.04;104004;1280;140368;-76
2022/05/04 09:05:31;;;;;;;0.40;0.10;;;;;;;19.82;32.96;100823.70;104104;1280;95832;-74
2022/05/04 09:07:59;;;;;;;0.40;0.10;;;;;;;19.81;32.52;100822.00;104137;1281;110157;-76
2022/05/04 09:10:34;;;;;;;0.40;0.10;;;;;;;20.01;32.72;100821.88;104032;1281;139756;-78
2022/05/04 09:13:03;;;;;;;0.40;0.10;;;;;;;20.36;31.52;100817.81;104074;1281;109891;-75
2022/05/04 09:15:34;;;;;;;0.40;0.10;;;;;;;20.71;31.27;100821.86;103981;1281;138401;-74
2022/05/04 09:18:13;;;;;;;0.40;0.10;;;;;;;21.33;29.90;100823.92;104203;1281;95332;-77
2022/05/04 09:20:49;;;;;;;0.40;0.10;;;;;;;22.92;28.53;100824.44;104014;1279;140265;-76
2022/05/04 09:23:19;;;;;;;0.40;0.10;;;;;;;23.90;26.17;100819.84;104131;1279;98994;-77
2022/05/04 09:25:52;;;;;;;0.40;0.10;;;;;;;23.47;26.62;100822.30;104143;1279;108334;-78
2022/05/04 09:28:20;;;;;;;0.40;0.10;;;;;;;24.77;25.58;100820.02;104003;1279;139852;-78
2022/05/04 09:30:54;;;;;;;0.40;0.10;;;;;;;26.19;24.15;100820.61;104131;1279;95713;-75
2022/05/04 09:33:29;;;;;;;0.40;0.00;;;;;;;27.58;22.88;100819.34;104024;1279;139746;-79
2022/05/04 09:35:58;;;;;;;0.40;0.00;;;;;;;28.78;21.15;100812.39;104110;1279;99929;-77
2022/05/04 09:47:20;;;;;;;0.40;0.00;;;;;;;31.95;17.04;100808.33;103135;1287;109841;-79
2022/05/04 09:49:48;;;;;;;0.40;0.00;;;;;;;32.02;17.65;100810.32;103746;1279;99936;-81
2022/05/04 09:52:23;;;;;;;0.40;0.00;;;;;;;32.76;17.10;100808.75;104068;1277;140215;-79
2022/05/04 09:54:53;;;;;;;0.40;0.00;;;;;;;32.55;16.56;100802.39;103970;1279;95670;-75
2022/05/04 09:57:22;;;;;;;0.40;0.00;;;;;;;33.18;16.12;100804.25;103973;1277;140404;-75
2022/05/04 09:59:51;;;;;;;0.40;0.00;;;;;;;33.64;15.67;100805.38;103970;1277;109989;-77
2022/05/04 10:02:19;;;;;;;0.40;0.00;;;;;;;33.52;15.26;100800.99;103910;1279;140035;-75
2022/05/04 10:04:48;;;;;;;0.40;0.00;;;;;;;32.41;15.78;100803.55;104037;1279;108855;-79
2022/05/04 10:07:16;;;;;;;0.40;0.00;;;;;;;31.13;16.74;100805.70;104202;1279;95746;-77
2022/05/04 10:09:44;;;;;;;0.40;0.00;;;;;;;30.71;17.51;100811.19;104021;1279;139990;-80
2022/05/04 10:12:12;;;;;;;0.40;0.00;;;;;;;31.13;16.46;100807.45;104158;1279;109098;-77
2022/05/04 10:14:43;;;;;;;0.40;0.00;;;;;;;29.58;17.80;100812.58;104024;1279;138634;-83
2022/05/04 10:17:14;;;;;;;0.40;0.00;;;;;;;28.58;18.90;100811.95;104199;1279;110064;-75
2022/05/04 10:19:48;;;;;;;0.40;0.00;;;;;;;28.27;19.39;100811.35;104121;1279;95234;-75
2022/05/04 10:22:28;;;;;;;0.40;0.00;;;;;;;27.98;19.44;100808.59;104243;1279;140279;-77
2022/05/04 10:24:58;;;;;;;0.40;0.00;;;;;;;27.47;19.22;100801.48;103983;1279;110228;-75
2022/05/04 10:27:28;;;;;;;0.40;0.00;;;;;;;27.15;19.51;100800.65;104149;1279;139706;-78
2022/05/04 10:32:50;;;;;;;0.40;0.00;;;;;;;28.39;19.50;100794.89;104003;1279;140513;-79
2022/05/04 10:35:38;;;;;;;0.40;0.00;;;;;;;29.37;18.63;100790.95;104088;1279;95676;-77
2022/05/04 10:38:10;;;;;;;0.40;0.00;;;;;;;30.54;17.48;100795.35;104099;1279;110517;-81
2022/05/04 10:40:51;;;;;;;0.40;0.00;;;;;;;31.42;16.49;100788.77;104011;1279;140062;-76
2022/05/04 10:43:33;;;;;;;0.40;0.00;;;;;;;31.16;16.43;100791.59;104116;1279;109442;-78
2022/05/04 10:46:10;;;;;;;0.40;0.00;;;;;;;29.60;16.65;100782.54;104070;1278;139335;-76
2022/05/04 10:48:50;;;;;;;0.40;0.00;;;;;;;29.16;17.70;100782.76;104258;1279;95222;-77
2022/05/04 10:51:21;;;;;;;0.40;0.00;;;;;;;29.58;16.92;100782.05;103994;1279;140843;-80
2022/05/04 10:53:50;;;;;;;0.40;0.00;;;;;;;29.24;17.24;100776.88;104185;1279;99545;-76
2022/05/04 10:56:20;;;;;;;0.40;0.00;;;;;;;28.31;18.64;100777.98;104022;1279;109404;-75
2022/05/04 10:58:50;;;;;;;0.40;0.00;;;;;;;27.61;19.40;100780.42;103973;1279;138371;-82
2022/05/04 11:01:22;;;;;;;0.40;0.00;;;;;;;26.97;19.82;100781.45;104076;1279;96083;-75
2022/05/04 11:04:09;;;;;;;0.40;0.00;;;;;;;26.30;20.31;100786.91;104017;1279;138184;-77
2022/05/04 11:06:39;;;;;;;0.40;0.00;;;;;;;26.01;21.13;100778.64;104061;1279;99877;-74
2022/05/04 11:09:18;;;;;;;0.40;0.00;;;;;;;25.74;21.58;100776.81;103944;1279;138370;-76
2022/05/04 11:11:49;;;;;;;0.40;0.00;;;;;;;24.99;21.45;100773.80;104047;1279;95740;-76
2022/05/04 11:14:22;;;;;;;0.40;0.00;;;;;;;24.52;22.58;100776.23;104115;1279;95256;-77
2022/05/04 11:16:55;;;;;;;0.40;0.00;;;;;;;24.17;22.53;100775.03;104236;1279;139975;-75
2022/05/04 11:19:25;;;;;;;0.40;0.00;;;;;;;23.81;23.58;100775.52;104008;1279;99191;-80
2022/05/04 11:21:55;;;;;;;0.40;0.00;;;;;;;23.54;23.76;100777.23;103917;1279;139611;-85
2022/05/04 11:24:27;;;;;;;0.40;0.00;;;;;;;23.21;23.43;100779.64;104180;1279;95718;-74
2022/05/04 11:26:55;;;;;;;0.40;0.00;;;;;;;22.65;24.05;100781.48;104017;1279;140576;-74
2022/05/04 11:29:26;;;;;;;0.40;0.10;;;;;;;22.44;24.29;100782.16;104206;1279;109232;-76
2022/05/04 11:32:05;;;;;;;0.40;0.10;;;;;;;22.43;24.65;100784.08;104134;1279;99858;-77
2022/05/04 11:34:36;;;;;;;0.40;0.10;;;;;;;22.22;24.78;100786.06;103958;1279;139229;-80
2022/05/04 11:37:11;;;;;;;0.40;0.10;;;;;;;22.15;25.58;100784.70;104056;1279;95259;-75
2022/05/04 11:39:39;;;;;;;0.40;0.10;;;;;;;22.26;25.52;100784.70;104049;1279;138519;-78
2022/05/04 11:42:08;;;;;;;0.40;0.00;;;;;;;22.35;25.75;100778.09;104102;1279;109246;-80
2022/05/04 11:44:38;;;;;;;0.40;0.10;;;;;;;22.12;24.74;100783.29;104010;1278;140251;-77
2022/05/04 11:47:08;;;;;;;0.40;0.10;;;;;;;21.78;25.44;100777.29;104122;1279;107748;-74
2022/05/04 11:49:36;;;;;;;0.40;0.10;;;;;;;21.76;25.61;100775.98;104132;1279;95529;-75
2022/05/04 11:52:05;;;;;;;0.40;0.10;;;;;;;21.82;25.69;100777.20;104005;1279;140828;-75
2022/05/04 11:54:33;;;;;;;0.40;0.10;;;;;;;21.77;25.66;100776.64;103770;1279;110044;-75
2022/05/04 11:57:01;;;;;;;0.40;0.00;;;;;;;21.69;25.36;100775.71;104020;1279;140137;-75